Duncan, Canada
Current Conditions -  °F | °C
As of 3:00 PM on Sunday 21 Dec 2014 (Local Time) from CYYJ Reporting Station
Broken Clouds Broken Clouds  
Wind Chill: 52°   Ceiling: 18000
Heat Index: 52°   Visibility: 30mi
Dew Point: 43°   Wind: 10mph
Humidity: 71%   Direction: 250°WSW
Pressure: 29.94"   Gusts: NA
Location:  48.78°N, 123.7°W
Report Text: CYYJ 212300Z 25009KT 30SM FEW046 BKN180 BKN220 11/06 A2994 RMK SC1AC6CI1 SC TR SLP140
Loading
Personal Weather Stations






























Interactive Weather Map New forecast layout! Learn more

10-Day Weather Forecast

Advertisements
Track Severe Weather on mobile